createdAt,value
2022-08-11T00:01:05.315Z,101923.53
2022-08-11T00:03:43.163Z,101928.31
2022-08-11T00:06:11.431Z,101907.81
2022-08-11T00:08:38.625Z,101925.75
2022-08-11T00:11:08.433Z,101921.34
2022-08-11T00:13:37.389Z,101919.50
2022-08-11T00:16:11.104Z,101897.66
2022-08-11T00:18:41.424Z,101919.50
2022-08-11T00:21:08.383Z,101923.19
2022-08-11T00:23:41.615Z,101919.81
2022-08-11T00:26:08.835Z,101923.19
2022-08-11T00:28:36.236Z,101923.19
2022-08-11T00:31:11.537Z,101921.53
2022-08-11T00:33:44.694Z,101919.81
2022-08-11T00:36:16.212Z,101921.53
2022-08-11T00:38:45.631Z,101914.41
2022-08-11T00:41:18.249Z,101917.09
2022-08-11T00:44:07.813Z,101915.44
2022-08-11T00:46:52.456Z,101922.69
2022-08-11T00:49:54.347Z,101927.22
2022-08-11T00:52:32.923Z,101922.84
2022-08-11T00:55:03.556Z,101926.53
2022-08-11T00:57:37.780Z,101921.13
2022-08-11T01:00:19.383Z,101920.31
2022-08-11T01:02:48.695Z,101816.81
2022-08-11T01:05:36.839Z,101921.31
2022-08-11T01:08:37.463Z,101923.19
2022-08-11T01:11:22.000Z,101917.94
2022-08-11T01:14:34.058Z,101911.69
2022-08-11T01:17:22.612Z,101916.22
2022-08-11T01:20:47.009Z,101919.13
2022-08-11T01:22:59.532Z,101919.13
2022-08-11T01:25:57.445Z,101920.94
2022-08-11T01:28:53.544Z,101913.03
2022-08-11T01:31:38.331Z,101921.97
2022-08-11T01:34:27.879Z,101916.72
2022-08-11T01:37:06.324Z,101920.25
2022-08-11T01:40:11.550Z,101915.03
2022-08-11T01:43:25.060Z,101912.34
2022-08-11T01:46:12.540Z,101918.72
2022-08-11T01:48:48.136Z,101924.31
2022-08-11T01:51:58.419Z,101921.63
2022-08-11T01:54:35.623Z,101910.97
2022-08-11T01:57:20.845Z,101912.81
2022-08-11T02:00:07.495Z,101909.59
2022-08-11T02:02:48.534Z,101908.41
2022-08-11T02:05:28.474Z,101915.69
2022-08-11T02:08:02.995Z,101910.28
2022-08-11T02:11:05.480Z,101915.00
2022-08-11T02:13:53.731Z,101913.97
2022-08-11T02:16:46.660Z,101911.44
2022-08-11T02:19:59.837Z,101920.38
2022-08-11T02:22:58.299Z,101914.44
2022-08-11T02:25:56.230Z,101874.34
2022-08-11T02:28:46.617Z,101909.91
2022-08-11T02:32:25.103Z,101909.91
2022-08-11T02:35:23.547Z,101912.78
2022-08-11T02:38:18.968Z,101912.78
2022-08-11T02:41:34.386Z,101921.88
2022-08-11T02:44:59.471Z,101914.94
2022-08-11T02:47:38.224Z,101912.25
2022-08-11T02:50:23.532Z,101904.31
2022-08-11T02:53:17.493Z,101914.09
2022-08-11T02:56:28.358Z,101918.81
2022-08-11T02:59:25.461Z,101916.94
2022-08-11T03:02:04.596Z,101912.56
2022-08-11T03:04:57.534Z,101915.28
2022-08-11T03:08:01.263Z,101916.25
2022-08-11T03:10:33.809Z,101908.34
2022-08-11T03:13:43.967Z,101915.44
2022-08-11T03:16:38.558Z,101888.69
2022-08-11T03:19:23.510Z,101907.47
2022-08-11T03:22:03.647Z,101911.19
2022-08-11T03:24:51.441Z,101905.94
2022-08-11T03:27:43.034Z,101902.25
2022-08-11T03:30:26.587Z,101898.72
2022-08-11T03:33:33.753Z,101893.94
2022-08-11T03:36:20.285Z,101891.94
2022-08-11T03:39:06.107Z,101893.63
2022-08-11T03:42:03.368Z,101895.47
2022-08-11T03:45:05.420Z,101900.03
2022-08-11T03:47:37.812Z,101891.94
2022-08-11T03:50:48.955Z,101898.31
2022-08-11T03:53:55.937Z,101901.03
2022-08-11T03:56:44.069Z,101902.03
2022-08-11T03:59:43.407Z,101904.91
2022-08-11T04:02:33.578Z,101908.44
2022-08-11T04:05:07.389Z,101879.63
2022-08-11T04:07:58.332Z,101907.75
2022-08-11T04:11:01.288Z,101754.16
2022-08-11T04:13:58.138Z,101909.06
2022-08-11T04:16:44.346Z,101907.06
2022-08-11T04:19:40.374Z,101852.84
2022-08-11T04:22:42.015Z,101917.03
2022-08-11T04:25:21.051Z,101909.94
2022-08-11T04:28:04.606Z,101912.63
2022-08-11T04:31:10.028Z,101916.34
2022-08-11T04:33:56.566Z,101918.19
2022-08-11T04:37:30.490Z,101919.19
2022-08-11T04:40:36.887Z,101915.63
2022-08-11T04:43:31.880Z,101913.09
2022-08-11T04:46:37.508Z,101914.91
2022-08-11T04:49:44.205Z,101824.63
2022-08-11T04:52:52.575Z,101914.09
2022-08-11T04:56:08.535Z,101922.19
2022-08-11T04:59:24.510Z,101912.41
2022-08-11T05:02:26.589Z,101917.09
2022-08-11T05:05:35.175Z,101915.41
2022-08-11T05:08:24.202Z,101919.13
2022-08-11T05:11:24.789Z,101921.81
2022-08-11T05:14:19.901Z,101914.00
2022-08-11T05:17:16.572Z,101924.53
2022-08-11T05:20:05.990Z,101928.22
2022-08-11T05:23:06.540Z,101930.91
2022-08-11T05:26:43.960Z,101927.50
2022-08-11T05:29:23.865Z,101913.44
2022-08-11T05:32:17.737Z,101932.78
2022-08-11T05:34:57.053Z,101943.56
2022-08-11T05:37:37.133Z,101938.31
2022-08-11T05:40:28.208Z,101942.72
2022-08-11T05:43:31.198Z,101944.72
2022-08-11T05:46:19.605Z,101943.72
2022-08-11T05:49:05.519Z,101945.44
2022-08-11T05:51:55.811Z,101945.72
2022-08-11T05:54:50.587Z,101950.13
2022-08-11T05:57:49.576Z,101959.06
2022-08-11T06:00:14.522Z,101955.53
2022-08-11T06:02:55.268Z,101951.81
2022-08-11T06:05:22.939Z,101958.09
2022-08-11T06:07:55.692Z,101941.97
2022-08-11T06:10:30.665Z,101950.13
2022-08-11T06:12:58.316Z,101950.97
2022-08-11T06:15:25.834Z,101958.09
2022-08-11T06:17:53.960Z,101946.41
2022-08-11T06:20:21.915Z,101952.69
2022-08-11T06:22:57.408Z,101952.69
2022-08-11T06:25:31.411Z,101949.97
2022-08-11T06:27:58.686Z,101950.81
2022-08-11T06:30:35.038Z,101949.81
2022-08-11T06:33:04.318Z,101855.72
2022-08-11T06:35:57.231Z,101947.09
2022-08-11T06:38:38.073Z,101949.81
2022-08-11T06:41:32.513Z,101947.94
2022-08-11T06:44:14.155Z,101946.97
2022-08-11T06:46:41.752Z,101946.13
2022-08-11T06:49:30.485Z,101943.41
2022-08-11T06:52:32.141Z,101943.41
2022-08-11T06:55:06.530Z,101946.81
2022-08-11T06:57:57.724Z,101947.78
2022-08-11T07:00:28.771Z,101941.41
2022-08-11T07:03:11.451Z,101928.84
2022-08-11T07:05:37.861Z,101945.78
2022-08-11T07:08:35.764Z,101942.94
2022-08-11T07:11:45.914Z,101939.41
2022-08-11T07:14:38.525Z,101941.09
2022-08-11T07:17:10.619Z,101934.84
2022-08-11T07:19:57.281Z,101936.69
2022-08-11T07:22:44.670Z,101940.09
2022-08-11T07:25:33.976Z,101911.66
2022-08-11T07:28:23.547Z,101927.44
2022-08-11T07:30:58.451Z,101933.66
2022-08-11T07:34:07.959Z,101932.84
2022-08-11T07:36:38.728Z,101934.38
2022-08-11T07:39:12.705Z,101906.59
2022-08-11T07:41:39.571Z,101931.06
2022-08-11T07:44:09.734Z,101928.03
2022-08-11T07:47:01.123Z,101930.38
2022-08-11T07:49:49.786Z,101927.56
2022-08-11T07:52:33.815Z,101933.59
2022-08-11T07:55:50.212Z,101925.16
2022-08-11T07:58:38.768Z,101927.84
2022-08-11T08:01:37.011Z,101926.13
2022-08-11T08:04:25.035Z,101929.31
2022-08-11T08:07:11.319Z,101933.19
2022-08-11T08:09:57.679Z,101940.59
2022-08-11T08:12:44.005Z,101932.13
2022-08-11T08:15:30.996Z,101928.03
2022-08-11T08:18:09.350Z,101922.78
2022-08-11T08:20:49.834Z,101912.78
2022-08-11T08:23:18.340Z,101923.94
2022-08-11T08:25:45.957Z,101926.66
2022-08-11T08:28:17.706Z,101910.38
2022-08-11T08:30:47.835Z,101920.97
2022-08-11T08:33:26.415Z,101920.31
2022-08-11T08:36:11.829Z,101920.47
2022-08-11T08:38:41.053Z,101916.53
2022-08-11T08:41:08.893Z,101894.38
2022-08-11T08:43:48.610Z,101929.09
2022-08-11T08:46:20.705Z,101899.28
2022-08-11T08:48:48.274Z,101935.50
2022-08-11T08:51:54.681Z,101908.44
2022-08-11T08:54:29.607Z,101902.69
2022-08-11T08:56:57.254Z,101920.09
2022-08-11T08:59:26.994Z,101921.63
2022-08-11T09:02:13.916Z,101912.53
2022-08-11T09:04:42.657Z,101916.75
2022-08-11T09:07:15.439Z,101910.06
2022-08-11T09:09:48.197Z,101913.44
2022-08-11T09:12:17.346Z,101914.13
2022-08-11T09:15:05.519Z,101917.19
2022-08-11T09:17:40.436Z,101917.03
2022-08-11T09:20:11.302Z,101919.41
2022-08-11T09:26:09.997Z,101915.56
2022-08-11T09:28:36.988Z,101916.72
2022-08-11T09:31:05.303Z,101914.34
2022-08-11T09:33:32.976Z,101915.19
2022-08-11T09:36:20.896Z,101904.38
2022-08-11T09:39:06.382Z,101885.75
2022-08-11T09:42:00.757Z,101913.38
2022-08-11T09:44:40.571Z,101914.41
2022-08-11T09:47:15.414Z,101912.69
2022-08-11T09:49:45.931Z,101910.84
2022-08-11T09:52:14.495Z,101910.69
2022-08-11T09:54:42.730Z,101903.28
2022-08-11T09:57:36.378Z,101900.59
2022-08-11T10:00:12.774Z,101908.22
2022-08-11T10:02:47.280Z,101900.81
2022-08-11T10:05:35.818Z,101900.53
2022-08-11T10:08:03.054Z,101894.78
2022-08-11T10:10:32.485Z,101867.34
2022-08-11T10:13:05.330Z,101887.03
2022-08-11T10:16:02.348Z,101865.22
2022-08-11T10:18:51.537Z,101881.81
2022-08-11T10:21:29.543Z,101892.34
2022-08-11T10:24:17.779Z,101880.38
2022-08-11T10:26:55.224Z,101880.03
2022-08-11T10:29:45.419Z,101885.28
2022-08-11T10:32:49.308Z,101876.00
2022-08-11T10:35:26.216Z,101881.94
2022-08-11T10:38:06.550Z,101870.78
2022-08-11T10:40:38.669Z,101869.59
2022-08-11T10:43:13.380Z,101863.06
2022-08-11T10:46:04.083Z,101863.75
2022-08-11T10:48:36.390Z,101859.88
2022-08-11T10:51:13.896Z,101842.78
2022-08-11T10:54:17.898Z,101853.28
2022-08-11T10:57:03.284Z,101857.19
2022-08-11T10:59:30.337Z,101863.28
2022-08-11T11:01:59.032Z,101825.91
2022-08-11T11:04:50.763Z,101855.69
2022-08-11T11:07:24.119Z,101849.13
2022-08-11T11:09:56.093Z,101841.84
2022-08-11T11:12:51.884Z,101845.22
2022-08-11T11:15:39.553Z,101840.34
2022-08-11T11:18:14.513Z,101833.91
2022-08-11T11:20:47.332Z,101839.16
2022-08-11T11:23:40.645Z,101834.44
2022-08-11T11:26:27.163Z,101839.69
2022-08-11T11:29:44.914Z,101837.66
2022-08-11T11:32:21.585Z,101832.06
2022-08-11T11:35:06.614Z,101834.63
2022-08-11T11:37:35.623Z,101831.75
2022-08-11T11:40:10.955Z,101820.63
2022-08-11T11:42:40.165Z,101821.44
2022-08-11T11:45:08.916Z,101822.13
2022-08-11T11:47:37.559Z,101819.25
2022-08-11T11:50:07.372Z,101824.50
2022-08-11T11:52:34.614Z,101819.78
2022-08-11T11:55:02.682Z,101825.88
2022-08-11T11:57:58.727Z,101746.03
2022-08-11T12:00:46.942Z,101827.03
2022-08-11T12:03:13.997Z,101815.38
2022-08-11T12:05:42.352Z,101812.50
2022-08-11T12:08:15.211Z,101807.25
2022-08-11T12:10:48.138Z,101811.84
2022-08-11T12:13:35.742Z,101813.53
2022-08-11T12:16:33.683Z,101814.56
2022-08-11T12:18:54.318Z,101807.25
2022-08-11T12:21:21.827Z,101795.78
2022-08-11T12:24:07.819Z,101805.91
2022-08-11T12:27:15.152Z,101782.09
2022-08-11T12:29:39.973Z,101774.81
2022-08-11T12:32:10.165Z,101805.25
2022-08-11T12:34:36.764Z,101797.97
2022-08-11T12:37:06.861Z,101796.09
2022-08-11T12:40:10.751Z,101791.53
2022-08-11T12:43:08.308Z,101791.41
2022-08-11T12:45:48.701Z,101776.50
2022-08-11T12:49:00.674Z,101795.47
2022-08-11T12:52:12.371Z,101763.84
2022-08-11T12:54:42.211Z,101791.41
2022-08-11T12:57:38.004Z,101787.50
2022-08-11T13:00:25.541Z,101783.81
2022-08-11T13:03:12.802Z,101781.75
2022-08-11T13:05:44.579Z,101774.50
2022-08-11T13:08:13.916Z,101773.47
2022-08-11T13:10:59.959Z,101738.34
2022-08-11T13:13:54.661Z,101763.47
2022-08-11T13:16:14.838Z,101754.69
2022-08-11T13:18:42.974Z,101757.06
2022-08-11T13:21:20.797Z,101755.03
2022-08-11T13:24:00.439Z,101748.78
2022-08-11T13:26:48.099Z,101750.97
2022-08-11T13:29:22.135Z,101743.34
2022-08-11T13:31:51.497Z,101743.84
2022-08-11T13:34:20.757Z,101744.53
2022-08-11T13:36:51.929Z,101746.19
2022-08-11T13:39:19.463Z,101741.44
2022-08-11T13:41:48.519Z,101743.16
2022-08-11T13:44:23.114Z,101737.75
2022-08-11T13:46:53.466Z,101741.13
2022-08-11T13:49:21.732Z,101725.88
2022-08-11T13:51:49.524Z,101736.84
2022-08-11T13:54:38.325Z,101725.88
2022-08-11T13:57:08.256Z,101730.91
2022-08-11T13:59:43.990Z,101725.19
2022-08-11T14:02:28.814Z,101730.22
2022-08-11T14:05:09.854Z,101727.22
2022-08-11T14:07:45.493Z,101722.63
2022-08-11T14:10:16.093Z,101719.09
2022-08-11T14:13:06.345Z,101696.91
2022-08-11T14:15:34.940Z,101714.81
2022-08-11T14:18:06.428Z,101712.94
2022-08-11T14:20:54.850Z,101712.13
2022-08-11T14:23:28.646Z,101712.94
2022-08-11T14:26:15.186Z,101705.88
2022-08-11T14:28:44.972Z,101711.28
2022-08-11T14:31:14.982Z,101705.88
2022-08-11T14:34:00.850Z,101699.41
2022-08-11T14:36:35.817Z,101699.91
2022-08-11T14:39:08.417Z,101697.03
2022-08-11T14:42:10.513Z,101678.44
2022-08-11T14:45:01.183Z,101689.06
2022-08-11T14:47:29.771Z,101671.63
2022-08-11T14:50:09.550Z,101682.81
2022-08-11T14:52:43.310Z,101685.44
2022-08-11T14:55:30.746Z,101680.53
2022-08-11T14:57:58.393Z,101676.44
2022-08-11T15:00:25.776Z,101684.03
2022-08-11T15:03:13.192Z,101677.88
2022-08-11T15:05:55.982Z,101660.44
2022-08-11T15:08:46.417Z,101674.84
2022-08-11T15:11:33.338Z,101655.69
2022-08-11T15:14:02.591Z,101675.97
2022-08-11T15:16:48.353Z,101668.63
2022-08-11T15:19:16.759Z,101668.91
2022-08-11T15:22:02.029Z,101667.91
2022-08-11T15:24:30.819Z,101660.94
2022-08-11T15:27:19.588Z,101655.72
2022-08-11T15:30:05.903Z,101665.22
2022-08-11T15:32:52.388Z,101665.59
2022-08-11T15:35:39.120Z,101663.25
2022-08-11T15:38:11.619Z,101658.00
2022-08-11T15:40:58.922Z,101649.59
2022-08-11T15:43:49.979Z,101657.22
2022-08-11T15:46:20.807Z,101646.94
2022-08-11T15:49:12.455Z,101650.13
2022-08-11T15:51:50.802Z,101648.44
2022-08-11T15:54:19.591Z,101627.84
2022-08-11T15:56:50.753Z,101647.44
2022-08-11T15:59:42.315Z,101646.38
2022-08-11T16:02:28.139Z,101648.25
2022-08-11T16:04:56.703Z,101629.56
2022-08-11T16:07:27.756Z,101638.47
2022-08-11T16:10:05.740Z,101642.00
2022-08-11T16:12:37.350Z,101639.00
2022-08-11T16:15:26.379Z,101643.69
2022-08-11T16:17:59.330Z,101639.97
2022-08-11T16:20:28.233Z,101638.91
2022-08-11T16:23:02.556Z,101634.53
2022-08-11T16:27:04.133Z,101640.78
2022-08-11T16:28:20.732Z,101637.25
2022-08-11T16:30:48.564Z,101634.53
2022-08-11T16:33:48.331Z,101610.47
2022-08-11T16:36:22.798Z,101632.84
2022-08-11T16:38:50.491Z,101636.59
2022-08-11T16:41:42.119Z,101640.13
2022-08-11T16:44:37.427Z,101633.03
2022-08-11T16:47:13.086Z,101621.72
2022-08-11T16:49:53.228Z,101633.22
2022-08-11T16:52:22.655Z,101628.84
2022-08-11T16:54:49.611Z,101626.13
2022-08-11T16:57:45.644Z,101624.41
2022-08-11T17:00:17.235Z,101622.09
2022-08-11T17:03:10.469Z,101623.59
2022-08-11T17:06:02.897Z,101623.94
2022-08-11T17:08:57.438Z,101621.44
2022-08-11T17:11:46.628Z,101613.34
2022-08-11T17:14:16.301Z,101620.09
2022-08-11T17:16:49.146Z,101623.81
2022-08-11T17:20:40.257Z,101613.53
2022-08-11T17:22:32.087Z,101621.13
2022-08-11T17:25:00.056Z,101607.44
2022-08-11T17:27:28.244Z,101594.16
2022-08-11T17:29:58.525Z,101622.72
2022-08-11T17:32:56.401Z,101615.13
2022-08-11T17:35:31.173Z,101611.56
2022-08-11T17:38:15.805Z,101619.88
2022-08-11T17:41:05.153Z,101592.53
2022-08-11T17:43:51.083Z,101611.44
2022-08-11T17:46:37.345Z,101613.69
2022-08-11T17:49:09.526Z,101615.88
2022-08-11T17:51:56.824Z,101609.63
2022-08-11T17:54:43.039Z,101615.22
2022-08-11T17:57:47.795Z,101616.25
2022-08-11T18:00:14.688Z,101609.13
2022-08-11T18:03:02.519Z,101603.72
2022-08-11T18:05:31.145Z,101613.22
2022-08-11T18:08:21.470Z,101606.97
2022-08-11T18:11:07.859Z,101604.81
2022-08-11T18:13:55.636Z,101609.22
2022-08-11T18:16:41.313Z,101613.31
2022-08-11T18:19:27.252Z,101604.84
2022-08-11T18:22:28.138Z,101616.09
2022-08-11T18:25:16.996Z,101617.69
2022-08-11T18:28:07.323Z,101607.19
2022-08-11T18:31:03.975Z,101591.50
2022-08-11T18:34:06.934Z,101617.69
2022-08-11T18:36:59.274Z,101613.09
2022-08-11T18:39:54.595Z,101623.56
2022-08-11T18:42:43.313Z,101619.84
2022-08-11T18:45:33.051Z,101623.22
2022-08-11T18:48:34.213Z,101607.19
2022-08-11T18:51:29.685Z,101624.72
2022-08-11T18:54:23.236Z,101637.91
2022-08-11T18:57:08.710Z,101645.00
2022-08-11T18:59:59.104Z,101648.56
2022-08-11T19:02:49.546Z,101642.97
2022-08-11T19:06:32.115Z,101653.81
2022-08-11T19:08:47.219Z,101651.94
2022-08-11T19:11:33.766Z,101652.59
2022-08-11T19:14:21.947Z,101649.06
2022-08-11T19:17:09.509Z,101658.00
2022-08-11T19:19:56.401Z,101658.84
2022-08-11T19:22:43.267Z,101654.28
2022-08-11T19:25:30.595Z,101652.59
2022-08-11T19:28:16.886Z,101658.00
2022-08-11T19:31:02.571Z,101657.19
2022-08-11T19:34:02.982Z,101629.34
2022-08-11T19:36:56.399Z,101666.16
2022-08-11T19:39:42.296Z,101632.09
2022-08-11T19:42:28.414Z,101667.16
2022-08-11T19:45:15.372Z,101668.19
2022-08-11T19:48:30.191Z,101576.09
2022-08-11T19:51:09.549Z,101659.13
2022-08-11T19:53:56.294Z,101680.22
2022-08-11T19:56:42.289Z,101682.06
2022-08-11T19:59:28.714Z,101669.59
2022-08-11T20:02:14.791Z,101679.06
2022-08-11T20:05:01.475Z,101683.09
2022-08-11T20:07:49.064Z,101685.81
2022-08-11T20:10:38.511Z,101670.63
2022-08-11T20:13:28.264Z,101680.38
2022-08-11T20:16:14.501Z,101686.66
2022-08-11T20:19:02.093Z,101685.81
2022-08-11T20:21:47.752Z,101697.47
2022-08-11T20:24:34.518Z,101681.94
2022-08-11T20:27:24.875Z,101695.59
2022-08-11T20:30:12.654Z,101703.72
2022-08-11T20:32:59.542Z,101703.72
2022-08-11T20:35:45.441Z,101701.94
2022-08-11T20:38:33.998Z,101709.34
2022-08-11T20:41:21.772Z,101712.22
2022-08-11T20:44:09.536Z,101701.94
2022-08-11T20:46:57.407Z,101710.19
2022-08-11T20:49:50.552Z,101712.06
2022-08-11T20:52:42.033Z,101703.06
2022-08-11T20:55:51.599Z,101717.47
2022-08-11T20:59:13.460Z,101711.19
2022-08-11T21:01:41.555Z,101653.47
2022-08-11T21:04:27.365Z,101709.50
2022-08-11T21:07:23.605Z,101706.81
2022-08-11T21:10:23.157Z,101704.09
2022-08-11T21:13:26.436Z,101713.06
2022-08-11T21:16:26.260Z,101688.25
2022-08-11T21:20:00.564Z,101704.09
2022-08-11T21:22:59.190Z,101698.19
2022-08-11T21:25:55.797Z,101688.91
2022-08-11T21:28:45.806Z,101707.84
2022-08-11T21:31:31.762Z,101711.56
2022-08-11T21:34:18.306Z,101694.34
2022-08-11T21:37:04.125Z,101704.63
2022-08-11T21:39:50.241Z,101685.25
2022-08-11T21:42:38.340Z,101696.38
2022-08-11T21:45:26.120Z,101713.59
2022-08-11T21:48:14.567Z,101716.47
2022-08-11T21:50:59.915Z,101710.88
2022-08-11T21:53:45.731Z,101713.59
2022-08-11T21:56:33.124Z,101711.06
2022-08-11T21:59:19.992Z,101695.03
2022-08-11T22:02:11.946Z,101710.22
2022-08-11T22:04:58.698Z,101703.97
2022-08-11T22:07:44.094Z,101707.50
2022-08-11T22:10:40.617Z,101712.09
2022-08-11T22:13:27.331Z,101708.41
2022-08-11T22:16:12.993Z,101711.25
2022-08-11T22:18:58.870Z,101710.38
2022-08-11T22:22:03.989Z,101719.38
2022-08-11T22:24:52.918Z,101719.38
2022-08-11T22:27:39.393Z,101692.03
2022-08-11T22:30:26.193Z,101723.09
2022-08-11T22:33:12.104Z,101721.22
2022-08-11T22:36:02.132Z,101722.25
2022-08-11T22:38:47.991Z,101714.66
2022-08-11T22:41:32.687Z,101728.50
2022-08-11T22:44:18.366Z,101720.56
2022-08-11T22:47:04.109Z,101721.56
2022-08-11T22:49:58.219Z,101725.13
2022-08-11T22:52:46.026Z,101705.88
2022-08-11T22:55:31.945Z,101724.44
2022-08-11T22:58:17.845Z,101725.31
2022-08-11T23:01:03.294Z,101721.28
2022-08-11T23:03:50.858Z,101726.50
2022-08-11T23:06:37.638Z,101729.19
2022-08-11T23:09:24.140Z,101724.81
2022-08-11T23:12:10.605Z,101729.19
2022-08-11T23:14:58.311Z,101735.66
2022-08-11T23:17:45.014Z,101733.97
2022-08-11T23:20:41.670Z,101734.97
2022-08-11T23:23:39.152Z,101729.56
2022-08-11T23:26:25.522Z,101723.31
2022-08-11T23:29:12.579Z,101731.59
2022-08-11T23:31:58.553Z,101721.13
2022-08-11T23:35:36.867Z,101725.34
2022-08-11T23:37:55.357Z,101720.94
2022-08-11T23:40:44.852Z,101723.66
2022-08-11T23:43:41.456Z,101722.81
2022-08-11T23:46:26.712Z,101720.44
2022-08-11T23:49:15.563Z,101728.38
2022-08-11T23:52:02.270Z,101722.97
2022-08-11T23:54:48.088Z,101716.88
2022-08-11T23:57:33.044Z,101718.72
